Terminal Aerodrome Forecast
Issued by NWS La Crosse, WI

Home | Current Version | Previous Version | Text Only | Print | Product List | Glossary On
Versions: 1 2 3 4 5 6 7 8 9 10 11 12 13 14 15 16 17 18 19 20 21 22 23 24 25 26 27 28
000
FTUS43 KARX 011120
TAFRST
TAF
KRST 011120Z 0112/0212 25006KT P6SM SKC
     FM011500 29005KT P6SM SCT040
     FM012100 30005KT P6SM VCTS BKN045CB
     FM020200 VRB03KT P6SM SCT045
     FM020800 22004KT 3SM BR SCT005=

USA.gov is the U.S. government's official web portal to all federal, state and local government web resources and services.